メインページ
METAR-TAF:

METAR-TAF

空港 :

パルマ・デ・マリョルカ, スペイン

パルマ・デ・マヨルカ空港

緯度: 39-33N, 経度: 002-44E, 海抜: 4m

現時点の気象観測

当レポートは17分前の15:30(UTC)に作成
西の風 7kt、南西から西/北西の間で変化する
気温 18°C
湿度 83%
気圧 1023 hPa
視程10km以上
高度4500ftの雲は散在している

METAR: LEPA 191530Z 26007KT 230V290 9999 SCT045 18/15 Q1023 NOSIG

時間: 17:47 (15:47 UTC)

予報

当レポートは4時間47分前の11:00(UTC)に作成
予報は19日の 12時(UTC)から 20日の 12時(UTC)まで有効
西/南西の風 11kt
視程10km以上
高度2000ftの雲はほとんどない
19日の 18時(UTC)から 19日の 20時(UTC)まで徐々に
東/北東の風 6kt
20日の 00時(UTC)から 20日の 06時(UTC)まで一時的に
視程: 3000m
高度800ftの千切れ雲あり
20日の 09時(UTC)から 20日の 11時(UTC)まで徐々に
南西の風 10kt

TAF: LEPA 191100Z 1912/2012 25011KT 9999 FEW020 TX23/1913Z TN11/2006Z BECMG 1918/1920 06006KT TEMPO 2000/2006 3000 BR BKN008 BECMG 2009/2011 22010KT

4,000以上の空港の気象観測と天気予報(METAR報とTAF報)

利用可能な観測所は地図上に黄色い丸と赤い丸で示す。

丸の上にカーソルを重ねると観測所名を参照できる。

次にクリックすると気象観測と天気予報を参照できる。

マップの切り替え:黒色「×」印の緑ボタンをクリックして拡大、「-」印の緑ボタンをクリックして縮小、緑色の三角印をクリックして隣りの地図に切り替え


METAR-TAF: